sensor_id;sensor_type;location;lat;lon;timestamp;pressure;altitude;pressure_sealevel;temperature;humidity
79129;BME280;68529;43.286;23.360;2023-11-18T00:00:34;98604.31;;;9.70;69.61
79129;BME280;68529;43.286;23.360;2023-11-18T00:02:59;98608.66;;;9.71;69.45
79129;BME280;68529;43.286;23.360;2023-11-18T00:05:25;98616.44;;;9.73;68.95
79129;BME280;68529;43.286;23.360;2023-11-18T00:07:50;98604.75;;;9.80;68.60
79129;BME280;68529;43.286;23.360;2023-11-18T00:10:16;98599.28;;;9.86;67.95
79129;BME280;68529;43.286;23.360;2023-11-18T00:12:42;98577.13;;;9.93;67.64
79129;BME280;68529;43.286;23.360;2023-11-18T00:15:08;98570.28;;;9.89;67.43
79129;BME280;68529;43.286;23.360;2023-11-18T00:17:36;98561.69;;;9.85;67.35
79129;BME280;68529;43.286;23.360;2023-11-18T00:20:01;98541.53;;;9.87;67.19
79129;BME280;68529;43.286;23.360;2023-11-18T00:22:28;98538.94;;;9.86;67.44
79129;BME280;68529;43.286;23.360;2023-11-18T00:24:54;98541.44;;;9.69;67.59
79129;BME280;68529;43.286;23.360;2023-11-18T00:27:20;98552.84;;;9.68;67.77
79129;BME280;68529;43.286;23.360;2023-11-18T00:29:46;98553.69;;;9.48;68.20
79129;BME280;68529;43.286;23.360;2023-11-18T00:32:11;98559.09;;;9.44;68.18
79129;BME280;68529;43.286;23.360;2023-11-18T00:34:37;98560.19;;;9.38;68.56
79129;BME280;68529;43.286;23.360;2023-11-18T00:37:02;98562.69;;;9.19;68.71
79129;BME280;68529;43.286;23.360;2023-11-18T00:39:28;98562.34;;;9.28;68.63
79129;BME280;68529;43.286;23.360;2023-11-18T00:41:54;98555.63;;;9.43;68.08
79129;BME280;68529;43.286;23.360;2023-11-18T00:44:21;98549.22;;;9.50;68.20
79129;BME280;68529;43.286;23.360;2023-11-18T00:46:47;98542.94;;;9.54;68.03
79129;BME280;68529;43.286;23.360;2023-11-18T00:49:12;98540.25;;;9.56;67.85
79129;BME280;68529;43.286;23.360;2023-11-18T00:51:37;98525.38;;;9.56;67.75
79129;BME280;68529;43.286;23.360;2023-11-18T00:54:03;98523.47;;;9.60;67.52
79129;BME280;68529;43.286;23.360;2023-11-18T00:56:31;98519.22;;;9.57;67.69
79129;BME280;68529;43.286;23.360;2023-11-18T00:58:57;98514.81;;;9.58;67.77
79129;BME280;68529;43.286;23.360;2023-11-18T01:01:22;98538.22;;;9.62;67.66
79129;BME280;68529;43.286;23.360;2023-11-18T01:03:48;98564.44;;;9.62;67.66
79129;BME280;68529;43.286;23.360;2023-11-18T01:06:13;98568.53;;;9.48;67.64
79129;BME280;68529;43.286;23.360;2023-11-18T01:08:43;98564.72;;;9.34;68.30
79129;BME280;68529;43.286;23.360;2023-11-18T01:11:09;98573.84;;;9.24;68.27
79129;BME280;68529;43.286;23.360;2023-11-18T01:13:34;98586.47;;;9.15;68.26
79129;BME280;68529;43.286;23.360;2023-11-18T01:16:00;98566.25;;;9.18;68.50
79129;BME280;68529;43.286;23.360;2023-11-18T01:18:25;98579.81;;;9.28;68.19
79129;BME280;68529;43.286;23.360;2023-11-18T01:20:50;98587.56;;;9.31;67.95
79129;BME280;68529;43.286;23.360;2023-11-18T01:23:16;98589.16;;;9.35;67.59
79129;BME280;68529;43.286;23.360;2023-11-18T01:25:42;98586.53;;;9.35;67.96
79129;BME280;68529;43.286;23.360;2023-11-18T01:28:07;98578.97;;;9.27;67.85
79129;BME280;68529;43.286;23.360;2023-11-18T01:30:33;98573.97;;;9.21;67.80
79129;BME280;68529;43.286;23.360;2023-11-18T01:32:58;98582.44;;;9.06;67.96
79129;BME280;68529;43.286;23.360;2023-11-18T01:35:27;98583.22;;;9.08;68.10
79129;BME280;68529;43.286;23.360;2023-11-18T01:37:53;98582.22;;;9.12;67.85
79129;BME280;68529;43.286;23.360;2023-11-18T01:40:20;98583.91;;;9.13;67.78
79129;BME280;68529;43.286;23.360;2023-11-18T01:42:45;98573.91;;;9.01;67.75
79129;BME280;68529;43.286;23.360;2023-11-18T01:45:12;98588.03;;;8.97;67.91
79129;BME280;68529;43.286;23.360;2023-11-18T01:47:38;98594.88;;;9.01;67.61
79129;BME280;68529;43.286;23.360;2023-11-18T01:50:06;98602.72;;;9.01;66.95
79129;BME280;68529;43.286;23.360;2023-11-18T01:52:34;98611.50;;;9.00;66.56
79129;BME280;68529;43.286;23.360;2023-11-18T01:55:00;98610.63;;;9.00;66.06
79129;BME280;68529;43.286;23.360;2023-11-18T01:57:26;98608.69;;;9.05;64.68
79129;BME280;68529;43.286;23.360;2023-11-18T01:59:55;98606.31;;;8.99;63.01
79129;BME280;68529;43.286;23.360;2023-11-18T02:02:21;98593.16;;;9.00;62.58
79129;BME280;68529;43.286;23.360;2023-11-18T02:04:47;98596.66;;;8.99;62.07
79129;BME280;68529;43.286;23.360;2023-11-18T02:07:13;98591.53;;;8.96;61.74
79129;BME280;68529;43.286;23.360;2023-11-18T02:09:41;98586.31;;;8.96;61.30
79129;BME280;68529;43.286;23.360;2023-11-18T02:14:50;98582.69;;;9.00;60.73
79129;BME280;68529;43.286;23.360;2023-11-18T02:17:18;98569.66;;;8.99;60.39
79129;BME280;68529;43.286;23.360;2023-11-18T02:19:44;98581.66;;;9.04;60.39
79129;BME280;68529;43.286;23.360;2023-11-18T02:22:10;98568.78;;;8.98;59.65
79129;BME280;68529;43.286;23.360;2023-11-18T02:24:38;98568.78;;;8.98;60.20
79129;BME280;68529;43.286;23.360;2023-11-18T02:27:06;98581.06;;;8.96;59.76
79129;BME280;68529;43.286;23.360;2023-11-18T02:29:40;98583.75;;;8.95;59.58
79129;BME280;68529;43.286;23.360;2023-11-18T02:32:33;98577.78;;;8.91;59.50
79129;BME280;68529;43.286;23.360;2023-11-18T02:35:13;98580.59;;;8.87;58.95
79129;BME280;68529;43.286;23.360;2023-11-18T02:37:44;98581.50;;;8.86;58.51
79129;BME280;68529;43.286;23.360;2023-11-18T02:40:15;98583.25;;;8.85;58.78
79129;BME280;68529;43.286;23.360;2023-11-18T02:42:44;98581.44;;;8.87;58.52
79129;BME280;68529;43.286;23.360;2023-11-18T02:45:11;98584.06;;;8.87;58.46
79129;BME280;68529;43.286;23.360;2023-11-18T02:47:40;98586.00;;;8.82;58.31
79129;BME280;68529;43.286;23.360;2023-11-18T02:50:06;98590.31;;;8.83;58.13
79129;BME280;68529;43.286;23.360;2023-11-18T02:52:38;98601.03;;;8.77;57.93
79129;BME280;68529;43.286;23.360;2023-11-18T02:55:05;98593.13;;;8.78;58.21
79129;BME280;68529;43.286;23.360;2023-11-18T02:57:37;98584.34;;;8.79;58.45
79129;BME280;68529;43.286;23.360;2023-11-18T03:00:04;98585.94;;;8.84;58.21
79129;BME280;68529;43.286;23.360;2023-11-18T03:02:30;98591.09;;;8.85;57.70
79129;BME280;68529;43.286;23.360;2023-11-18T03:04:59;98583.41;;;8.82;57.65
79129;BME280;68529;43.286;23.360;2023-11-18T03:07:24;98588.56;;;8.84;56.95
79129;BME280;68529;43.286;23.360;2023-11-18T03:09:52;98571.19;;;8.81;57.40
79129;BME280;68529;43.286;23.360;2023-11-18T03:12:19;98570.16;;;8.85;57.82
79129;BME280;68529;43.286;23.360;2023-11-18T03:14:45;98568.34;;;8.87;57.24
79129;BME280;68529;43.286;23.360;2023-11-18T03:17:10;98577.06;;;8.88;57.67
79129;BME280;68529;43.286;23.360;2023-11-18T03:19:36;98583.03;;;8.91;58.33
79129;BME280;68529;43.286;23.360;2023-11-18T03:22:02;98580.28;;;8.94;57.72
79129;BME280;68529;43.286;23.360;2023-11-18T03:24:28;98580.59;;;8.87;57.30
79129;BME280;68529;43.286;23.360;2023-11-18T03:26:57;98597.38;;;8.81;57.67
79129;BME280;68529;43.286;23.360;2023-11-18T03:29:22;98596.63;;;8.77;57.60
79129;BME280;68529;43.286;23.360;2023-11-18T03:31:49;98606.13;;;8.80;57.99
79129;BME280;68529;43.286;23.360;2023-11-18T03:34:17;98614.66;;;8.85;58.29
79129;BME280;68529;43.286;23.360;2023-11-18T03:36:45;98616.28;;;8.89;58.14
79129;BME280;68529;43.286;23.360;2023-11-18T03:39:12;98616.94;;;8.94;58.25
79129;BME280;68529;43.286;23.360;2023-11-18T03:41:37;98621.22;;;8.97;58.57
79129;BME280;68529;43.286;23.360;2023-11-18T03:44:04;98621.97;;;9.00;58.34
79129;BME280;68529;43.286;23.360;2023-11-18T03:46:29;98623.69;;;9.01;58.44
79129;BME280;68529;43.286;23.360;2023-11-18T03:48:58;98617.63;;;8.99;58.51
79129;BME280;68529;43.286;23.360;2023-11-18T03:51:24;98612.50;;;8.96;58.50
79129;BME280;68529;43.286;23.360;2023-11-18T03:53:49;98600.56;;;8.89;58.92
79129;BME280;68529;43.286;23.360;2023-11-18T03:56:19;98592.94;;;8.83;59.25
79129;BME280;68529;43.286;23.360;2023-11-18T03:58:44;98588.00;;;8.75;59.24
79129;BME280;68529;43.286;23.360;2023-11-18T04:01:22;98597.09;;;8.65;59.12
79129;BME280;68529;43.286;23.360;2023-11-18T04:03:48;98603.16;;;8.67;58.87
79129;BME280;68529;43.286;23.360;2023-11-18T04:06:14;98597.84;;;8.69;59.00
79129;BME280;68529;43.286;23.360;2023-11-18T04:08:45;98595.19;;;8.70;59.06
79129;BME280;68529;43.286;23.360;2023-11-18T04:11:11;98606.47;;;8.71;59.22
79129;BME280;68529;43.286;23.360;2023-11-18T04:13:36;98614.28;;;8.72;59.20
79129;BME280;68529;43.286;23.360;2023-11-18T04:16:02;98612.19;;;8.59;58.98
79129;BME280;68529;43.286;23.360;2023-11-18T04:18:28;98618.28;;;8.59;59.47
79129;BME280;68529;43.286;23.360;2023-11-18T04:20:54;98602.91;;;8.50;59.74
79129;BME280;68529;43.286;23.360;2023-11-18T04:23:19;98608.16;;;8.49;60.21
79129;BME280;68529;43.286;23.360;2023-11-18T04:25:44;98609.88;;;8.50;60.58
79129;BME280;68529;43.286;23.360;2023-11-18T04:28:10;98614.63;;;8.40;60.72
79129;BME280;68529;43.286;23.360;2023-11-18T04:30:35;98615.34;;;8.44;60.86
79129;BME280;68529;43.286;23.360;2023-11-18T04:33:01;98615.31;;;8.45;60.86
79129;BME280;68529;43.286;23.360;2023-11-18T04:35:26;98609.00;;;8.51;61.10
79129;BME280;68529;43.286;23.360;2023-11-18T04:37:52;98615.09;;;8.51;60.79
79129;BME280;68529;43.286;23.360;2023-11-18T04:40:17;98615.13;;;8.50;60.94
79129;BME280;68529;43.286;23.360;2023-11-18T04:42:43;98616.94;;;8.48;61.31
79129;BME280;68529;43.286;23.360;2023-11-18T04:45:08;98621.06;;;8.30;61.07
79129;BME280;68529;43.286;23.360;2023-11-18T04:47:39;98614.56;;;8.15;61.75
79129;BME280;68529;43.286;23.360;2023-11-18T04:50:07;98616.59;;;8.07;62.15
79129;BME280;68529;43.286;23.360;2023-11-18T04:52:34;98616.56;;;8.09;62.37
79129;BME280;68529;43.286;23.360;2023-11-18T04:55:00;98625.69;;;7.97;62.59
79129;BME280;68529;43.286;23.360;2023-11-18T04:57:25;98611.03;;;7.92;62.95
79129;BME280;68529;43.286;23.360;2023-11-18T04:59:51;98613.78;;;7.87;62.92
79129;BME280;68529;43.286;23.360;2023-11-18T05:02:16;98628.38;;;7.94;62.72
79129;BME280;68529;43.286;23.360;2023-11-18T05:04:41;98613.25;;;8.04;62.36
79129;BME280;68529;43.286;23.360;2023-11-18T05:07:07;98607.56;;;7.91;62.39
79129;BME280;68529;43.286;23.360;2023-11-18T05:09:32;98615.78;;;7.81;62.57
79129;BME280;68529;43.286;23.360;2023-11-18T05:12:00;98616.16;;;7.70;62.06
79129;BME280;68529;43.286;23.360;2023-11-18T05:14:25;98621.13;;;7.78;60.92
79129;BME280;68529;43.286;23.360;2023-11-18T05:16:51;98616.22;;;7.93;58.80
79129;BME280;68529;43.286;23.360;2023-11-18T05:19:17;98611.34;;;8.09;58.56
79129;BME280;68529;43.286;23.360;2023-11-18T05:21:42;98611.00;;;8.18;57.52
79129;BME280;68529;43.286;23.360;2023-11-18T05:24:08;98612.44;;;8.28;57.23
79129;BME280;68529;43.286;23.360;2023-11-18T05:26:34;98621.72;;;8.37;57.33
79129;BME280;68529;43.286;23.360;2023-11-18T05:29:00;98614.56;;;8.42;56.34
79129;BME280;68529;43.286;23.360;2023-11-18T05:31:25;98622.47;;;8.40;56.25
79129;BME280;68529;43.286;23.360;2023-11-18T05:33:50;98620.56;;;8.44;55.88
79129;BME280;68529;43.286;23.360;2023-11-18T05:36:20;98618.81;;;8.44;55.72
79129;BME280;68529;43.286;23.360;2023-11-18T05:38:52;98618.72;;;8.47;55.69
79129;BME280;68529;43.286;23.360;2023-11-18T05:41:19;98611.16;;;8.40;55.23
79129;BME280;68529;43.286;23.360;2023-11-18T05:43:53;98612.00;;;8.40;54.79
79129;BME280;68529;43.286;23.360;2023-11-18T05:46:19;98617.97;;;8.44;54.79
79129;BME280;68529;43.286;23.360;2023-11-18T05:48:49;98614.34;;;8.48;55.14
79129;BME280;68529;43.286;23.360;2023-11-18T05:51:23;98614.25;;;8.49;53.87
79129;BME280;68529;43.286;23.360;2023-11-18T05:53:49;98617.84;;;8.47;54.63
79129;BME280;68529;43.286;23.360;2023-11-18T05:56:16;98623.09;;;8.47;54.22
79129;BME280;68529;43.286;23.360;2023-11-18T05:58:42;98622.06;;;8.51;55.04
79129;BME280;68529;43.286;23.360;2023-11-18T06:01:11;98624.34;;;8.60;54.15
79129;BME280;68529;43.286;23.360;2023-11-18T06:03:41;98626.03;;;8.62;54.29
79129;BME280;68529;43.286;23.360;2023-11-18T06:06:07;98634.09;;;8.56;53.95
79129;BME280;68529;43.286;23.360;2023-11-18T06:08:34;98633.91;;;8.61;54.45
79129;BME280;68529;43.286;23.360;2023-11-18T06:10:59;98632.78;;;8.68;54.91
79129;BME280;68529;43.286;23.360;2023-11-18T06:13:30;98635.06;;;8.77;54.55
79129;BME280;68529;43.286;23.360;2023-11-18T06:15:56;98637.00;;;8.72;53.51
79129;BME280;68529;43.286;23.360;2023-11-18T06:18:21;98644.06;;;8.70;53.56
79129;BME280;68529;43.286;23.360;2023-11-18T06:20:47;98644.84;;;8.72;53.91
79129;BME280;68529;43.286;23.360;2023-11-18T06:23:13;98638.06;;;8.66;53.32
79129;BME280;68529;43.286;23.360;2023-11-18T06:25:43;98648.31;;;8.72;53.36
79129;BME280;68529;43.286;23.360;2023-11-18T06:28:11;98650.88;;;8.74;53.43
79129;BME280;68529;43.286;23.360;2023-11-18T06:30:36;98646.56;;;8.73;52.98
79129;BME280;68529;43.286;23.360;2023-11-18T06:33:01;98650.97;;;8.71;53.16
79129;BME280;68529;43.286;23.360;2023-11-18T06:35:28;98655.53;;;8.66;52.97
79129;BME280;68529;43.286;23.360;2023-11-18T06:37:54;98659.88;;;8.67;53.07
79129;BME280;68529;43.286;23.360;2023-11-18T06:40:20;98659.88;;;8.67;52.55
79129;BME280;68529;43.286;23.360;2023-11-18T06:42:47;98654.91;;;8.59;51.77
79129;BME280;68529;43.286;23.360;2023-11-18T06:45:13;98673.19;;;8.61;51.52
79129;BME280;68529;43.286;23.360;2023-11-18T06:47:40;98666.22;;;8.60;51.69
79129;BME280;68529;43.286;23.360;2023-11-18T06:50:09;98662.81;;;8.58;51.31
79129;BME280;68529;43.286;23.360;2023-11-18T06:52:37;98676.75;;;8.58;51.56
79129;BME280;68529;43.286;23.360;2023-11-18T06:55:04;98670.72;;;8.56;50.51
79129;BME280;68529;43.286;23.360;2023-11-18T06:57:29;98684.88;;;8.51;51.23
79129;BME280;68529;43.286;23.360;2023-11-18T06:59:54;98683.16;;;8.50;51.16
79129;BME280;68529;43.286;23.360;2023-11-18T07:02:20;98692.69;;;8.52;51.35
79129;BME280;68529;43.286;23.360;2023-11-18T07:04:46;98690.16;;;8.49;50.94
79129;BME280;68529;43.286;23.360;2023-11-18T07:07:11;98708.34;;;8.54;51.27
79129;BME280;68529;43.286;23.360;2023-11-18T07:09:38;98709.94;;;8.58;51.26
79129;BME280;68529;43.286;23.360;2023-11-18T07:12:04;98708.25;;;8.57;50.69
79129;BME280;68529;43.286;23.360;2023-11-18T07:14:30;98704.69;;;8.58;50.23
79129;BME280;68529;43.286;23.360;2023-11-18T07:16:55;98715.25;;;8.55;50.57
79129;BME280;68529;43.286;23.360;2023-11-18T07:19:21;98728.31;;;8.56;51.42
79129;BME280;68529;43.286;23.360;2023-11-18T07:21:47;98710.84;;;8.57;50.47
79129;BME280;68529;43.286;23.360;2023-11-18T07:24:13;98718.09;;;8.49;50.40
79129;BME280;68529;43.286;23.360;2023-11-18T07:26:38;98724.16;;;8.51;51.19
79129;BME280;68529;43.286;23.360;2023-11-18T07:29:04;98727.66;;;8.50;51.17
79129;BME280;68529;43.286;23.360;2023-11-18T07:31:32;98722.44;;;8.50;50.25
79129;BME280;68529;43.286;23.360;2023-11-18T07:33:58;98728.44;;;8.52;50.43
79129;BME280;68529;43.286;23.360;2023-11-18T07:36:23;98731.25;;;8.47;50.63
79129;BME280;68529;43.286;23.360;2023-11-18T07:38:49;98741.50;;;8.53;50.70
79129;BME280;68529;43.286;23.360;2023-11-18T07:41:17;98747.50;;;8.57;50.70
79129;BME280;68529;43.286;23.360;2023-11-18T07:43:52;98738.69;;;8.59;50.48
79129;BME280;68529;43.286;23.360;2023-11-18T07:46:25;98741.34;;;8.58;50.26
79129;BME280;68529;43.286;23.360;2023-11-18T07:48:51;98735.41;;;8.53;50.16
79129;BME280;68529;43.286;23.360;2023-11-18T07:51:20;98731.06;;;8.52;50.30
79129;BME280;68529;43.286;23.360;2023-11-18T07:53:47;98716.13;;;8.55;50.08
79129;BME280;68529;43.286;23.360;2023-11-18T07:56:13;98737.13;;;8.54;50.62
79129;BME280;68529;43.286;23.360;2023-11-18T07:58:41;98734.50;;;8.54;50.36
79129;BME280;68529;43.286;23.360;2023-11-18T08:01:11;98741.53;;;8.52;50.74
79129;BME280;68529;43.286;23.360;2023-11-18T08:03:36;98739.00;;;8.50;50.48
79129;BME280;68529;43.286;23.360;2023-11-18T08:06:02;98749.19;;;8.58;51.25
79129;BME280;68529;43.286;23.360;2023-11-18T08:08:28;98736.97;;;8.58;50.25
79129;BME280;68529;43.286;23.360;2023-11-18T08:10:53;98734.28;;;8.60;50.83
79129;BME280;68529;43.286;23.360;2023-11-18T08:13:21;98737.94;;;8.56;50.45
79129;BME280;68529;43.286;23.360;2023-11-18T08:15:46;98744.97;;;8.54;49.66
79129;BME280;68529;43.286;23.360;2023-11-18T08:18:12;98731.25;;;8.47;50.37
79129;BME280;68529;43.286;23.360;2023-11-18T08:20:38;98747.94;;;8.43;50.40
79129;BME280;68529;43.286;23.360;2023-11-18T08:23:03;98749.75;;;8.41;50.42
79129;BME280;68529;43.286;23.360;2023-11-18T08:25:32;98750.63;;;8.42;50.40
79129;BME280;68529;43.286;23.360;2023-11-18T08:28:05;98748.09;;;8.39;50.77
79129;BME280;68529;43.286;23.360;2023-11-18T08:30:32;98747.22;;;8.40;50.39
79129;BME280;68529;43.286;23.360;2023-11-18T08:32:59;98748.91;;;8.41;50.20
79129;BME280;68529;43.286;23.360;2023-11-18T08:35:24;98746.25;;;8.42;50.00
79129;BME280;68529;43.286;23.360;2023-11-18T08:37:50;98764.59;;;8.41;49.70
79129;BME280;68529;43.286;23.360;2023-11-18T08:40:16;98757.78;;;8.37;49.94
79129;BME280;68529;43.286;23.360;2023-11-18T08:42:47;98759.59;;;8.35;49.84
79129;BME280;68529;43.286;23.360;2023-11-18T08:45:28;98766.50;;;8.37;50.29
79129;BME280;68529;43.286;23.360;2023-11-18T08:47:55;98759.16;;;8.47;50.18
79129;BME280;68529;43.286;23.360;2023-11-18T08:50:21;98759.94;;;8.50;49.83
79129;BME280;68529;43.286;23.360;2023-11-18T08:52:49;98779.09;;;8.51;50.57
79129;BME280;68529;43.286;23.360;2023-11-18T08:55:18;98773.03;;;8.49;50.11
79129;BME280;68529;43.286;23.360;2023-11-18T08:57:50;98767.81;;;8.49;49.63
79129;BME280;68529;43.286;23.360;2023-11-18T09:00:42;98772.22;;;8.48;49.73
79129;BME280;68529;43.286;23.360;2023-11-18T09:03:08;98772.91;;;8.53;50.51
79129;BME280;68529;43.286;23.360;2023-11-18T09:05:33;98762.16;;;8.61;50.75
79129;BME280;68529;43.286;23.360;2023-11-18T09:08:01;98768.94;;;8.68;49.80
79129;BME280;68529;43.286;23.360;2023-11-18T09:10:27;98777.69;;;8.67;50.11
79129;BME280;68529;43.286;23.360;2023-11-18T09:12:55;98771.84;;;8.59;49.81
79129;BME280;68529;43.286;23.360;2023-11-18T09:15:21;98761.22;;;8.63;49.59
79129;BME280;68529;43.286;23.360;2023-11-18T09:17:50;98758.56;;;8.65;49.48
79129;BME280;68529;43.286;23.360;2023-11-18T09:20:18;98755.34;;;8.57;49.91
79129;BME280;68529;43.286;23.360;2023-11-18T09:22:50;98755.97;;;8.63;49.85
79129;BME280;68529;43.286;23.360;2023-11-18T09:25:18;98759.34;;;8.67;49.50
79129;BME280;68529;43.286;23.360;2023-11-18T09:27:44;98759.38;;;8.65;49.69
79129;BME280;68529;43.286;23.360;2023-11-18T09:30:10;98773.19;;;8.70;50.07
79129;BME280;68529;43.286;23.360;2023-11-18T09:32:42;98769.56;;;8.74;49.99
79129;BME280;68529;43.286;23.360;2023-11-18T09:35:10;98766.16;;;8.71;49.34
79129;BME280;68529;43.286;23.360;2023-11-18T09:37:38;98772.22;;;8.73;49.62
79129;BME280;68529;43.286;23.360;2023-11-18T09:40:04;98760.84;;;8.74;49.82
79129;BME280;68529;43.286;23.360;2023-11-18T09:42:37;98759.06;;;8.74;49.43
79129;BME280;68529;43.286;23.360;2023-11-18T09:45:04;98760.63;;;8.80;49.58
79129;BME280;68529;43.286;23.360;2023-11-18T09:47:36;98758.28;;;8.72;49.17
79129;BME280;68529;43.286;23.360;2023-11-18T09:50:08;98754.00;;;8.70;48.69
79129;BME280;68529;43.286;23.360;2023-11-18T09:52:39;98746.94;;;8.72;49.18
79129;BME280;68529;43.286;23.360;2023-11-18T09:55:15;98750.69;;;8.65;49.12
79129;BME280;68529;43.286;23.360;2023-11-18T09:57:52;98755.13;;;8.63;48.24
79129;BME280;68529;43.286;23.360;2023-11-18T10:00:23;98763.13;;;8.58;49.35
79129;BME280;68529;43.286;23.360;2023-11-18T10:02:53;98776.97;;;8.62;49.62
79129;BME280;68529;43.286;23.360;2023-11-18T10:05:21;98766.50;;;8.62;49.28
79129;BME280;68529;43.286;23.360;2023-11-18T10:07:52;98767.41;;;8.61;49.72
79129;BME280;68529;43.286;23.360;2023-11-18T10:10:20;98757.91;;;8.58;49.60
79129;BME280;68529;43.286;23.360;2023-11-18T10:12:51;98777.88;;;8.61;49.51
79129;BME280;68529;43.286;23.360;2023-11-18T10:15:23;98781.53;;;8.57;49.11
79129;BME280;68529;43.286;23.360;2023-11-18T10:17:53;98780.81;;;8.52;49.30
79129;BME280;68529;43.286;23.360;2023-11-18T10:20:48;98771.25;;;8.51;49.13
79129;BME280;68529;43.286;23.360;2023-11-18T10:23:17;98779.91;;;8.53;49.32
79129;BME280;68529;43.286;23.360;2023-11-18T10:25:49;98790.19;;;8.59;49.72
79129;BME280;68529;43.286;23.360;2023-11-18T10:28:30;98774.47;;;8.59;49.12
79129;BME280;68529;43.286;23.360;2023-11-18T10:31:04;98780.69;;;8.55;49.01
79129;BME280;68529;43.286;23.360;2023-11-18T10:33:49;98785.13;;;8.53;48.97
79129;BME280;68529;43.286;23.360;2023-11-18T10:36:23;98780.06;;;8.48;48.60
79129;BME280;68529;43.286;23.360;2023-11-18T10:38:50;98768.84;;;8.45;49.61
79129;BME280;68529;43.286;23.360;2023-11-18T10:41:18;98774.88;;;8.47;49.98
79129;BME280;68529;43.286;23.360;2023-11-18T10:43:43;98780.09;;;8.47;49.17
79129;BME280;68529;43.286;23.360;2023-11-18T10:46:10;98781.94;;;8.45;49.26
79129;BME280;68529;43.286;23.360;2023-11-18T10:48:43;98774.06;;;8.45;49.74
79129;BME280;68529;43.286;23.360;2023-11-18T10:51:13;98767.88;;;8.47;49.05
79129;BME280;68529;43.286;23.360;2023-11-18T10:53:47;98766.81;;;8.53;49.36
79129;BME280;68529;43.286;23.360;2023-11-18T10:56:24;98775.47;;;8.55;49.82
79129;BME280;68529;43.286;23.360;2023-11-18T10:58:58;98768.31;;;8.60;48.98
79129;BME280;68529;43.286;23.360;2023-11-18T11:01:30;98764.00;;;8.59;48.81
79129;BME280;68529;43.286;23.360;2023-11-18T11:03:59;98754.38;;;8.59;48.95
79129;BME280;68529;43.286;23.360;2023-11-18T11:06:26;98748.28;;;8.59;49.40
79129;BME280;68529;43.286;23.360;2023-11-18T11:08:56;98737.72;;;8.62;49.18
79129;BME280;68529;43.286;23.360;2023-11-18T11:11:24;98747.38;;;8.60;49.37
79129;BME280;68529;43.286;23.360;2023-11-18T11:13:58;98749.09;;;8.61;48.79
79129;BME280;68529;43.286;23.360;2023-11-18T11:16:40;98736.00;;;8.61;49.18
79129;BME280;68529;43.286;23.360;2023-11-18T11:19:20;98738.59;;;8.62;49.37
79129;BME280;68529;43.286;23.360;2023-11-18T11:22:00;98740.91;;;8.70;49.51
79129;BME280;68529;43.286;23.360;2023-11-18T11:27:17;98740.66;;;8.77;49.33
79129;BME280;68529;43.286;23.360;2023-11-18T11:29:59;98740.59;;;8.79;48.89
79129;BME280;68529;43.286;23.360;2023-11-18T11:32:29;98743.16;;;8.81;48.66
79129;BME280;68529;43.286;23.360;2023-11-18T11:35:02;98738.88;;;8.78;48.45
79129;BME280;68529;43.286;23.360;2023-11-18T11:37:35;98746.81;;;8.76;48.94
79129;BME280;68529;43.286;23.360;2023-11-18T11:40:02;98737.38;;;8.71;48.17
79129;BME280;68529;43.286;23.360;2023-11-18T11:42:35;98737.28;;;8.74;48.07
79129;BME280;68529;43.286;23.360;2023-11-18T11:45:01;98731.94;;;8.77;48.50
79129;BME280;68529;43.286;23.360;2023-11-18T11:47:28;98744.13;;;8.78;49.07
79129;BME280;68529;43.286;23.360;2023-11-18T11:50:18;98743.91;;;8.84;48.88
79129;BME280;68529;43.286;23.360;2023-11-18T11:52:53;98742.66;;;8.94;48.93
79129;BME280;68529;43.286;23.360;2023-11-18T11:55:33;98748.59;;;8.99;48.55
79129;BME280;68529;43.286;23.360;2023-11-18T11:58:01;98754.69;;;9.00;48.72
79129;BME280;68529;43.286;23.360;2023-11-18T12:00:27;98764.88;;;9.07;49.24
79129;BME280;68529;43.286;23.360;2023-11-18T12:03:01;98760.19;;;9.17;49.01
79129;BME280;68529;43.286;23.360;2023-11-18T12:05:30;98759.16;;;9.21;48.88
79129;BME280;68529;43.286;23.360;2023-11-18T12:07:59;98755.56;;;9.23;48.62
79129;BME280;68529;43.286;23.360;2023-11-18T12:10:30;98769.78;;;9.16;48.26
79129;BME280;68529;43.286;23.360;2023-11-18T12:13:09;98769.31;;;9.05;48.74
79129;BME280;68529;43.286;23.360;2023-11-18T12:18:30;98759.53;;;8.87;48.46
79129;BME280;68529;43.286;23.360;2023-11-18T12:21:02;98763.72;;;8.91;48.16
79129;BME280;68529;43.286;23.360;2023-11-18T12:23:29;98768.97;;;8.91;48.21
79129;BME280;68529;43.286;23.360;2023-11-18T12:25:56;98767.03;;;8.96;48.67
79129;BME280;68529;43.286;23.360;2023-11-18T12:28:30;98767.84;;;8.98;48.17
79129;BME280;68529;43.286;23.360;2023-11-18T12:31:00;98774.28;;;8.90;48.34
79129;BME280;68529;43.286;23.360;2023-11-18T12:34:01;98780.56;;;8.84;49.15
79129;BME280;68529;43.286;23.360;2023-11-18T12:47:55;98780.22;;;8.68;49.21
79129;BME280;68529;43.286;23.360;2023-11-18T12:50:21;98775.53;;;8.78;49.04
79129;BME280;68529;43.286;23.360;2023-11-18T12:52:52;98784.28;;;8.77;49.18
79129;BME280;68529;43.286;23.360;2023-11-18T12:55:19;98795.22;;;8.65;49.42
79129;BME280;68529;43.286;23.360;2023-11-18T12:57:48;98789.22;;;8.61;49.00
79129;BME280;68529;43.286;23.360;2023-11-18T13:00:17;98791.88;;;8.60;49.27
79129;BME280;68529;43.286;23.360;2023-11-18T13:02:44;98803.19;;;8.60;49.37
79129;BME280;68529;43.286;23.360;2023-11-18T13:05:26;98811.97;;;8.59;49.51
79129;BME280;68529;43.286;23.360;2023-11-18T13:07:56;98806.78;;;8.58;49.08
79129;BME280;68529;43.286;23.360;2023-11-18T13:10:23;98807.53;;;8.61;49.43
79129;BME280;68529;43.286;23.360;2023-11-18T13:12:49;98817.16;;;8.61;49.51
79129;BME280;68529;43.286;23.360;2023-11-18T13:15:16;98814.53;;;8.61;49.26
79129;BME280;68529;43.286;23.360;2023-11-18T13:17:56;98818.69;;;8.66;49.48
79129;BME280;68529;43.286;23.360;2023-11-18T13:20:22;98838.78;;;8.66;49.46
79129;BME280;68529;43.286;23.360;2023-11-18T13:22:49;98832.75;;;8.64;49.47
79129;BME280;68529;43.286;23.360;2023-11-18T13:25:15;98820.44;;;8.67;49.42